sensor_id;sensor_type;location;lat;lon;timestamp;temperature;humidity
65462;DHT22;53236;43.666;18.444;2024-03-02T00:00:43;3.80;99.90
65462;DHT22;53236;43.666;18.444;2024-03-02T00:03:09;3.70;99.90
65462;DHT22;53236;43.666;18.444;2024-03-02T00:05:38;3.70;99.90
65462;DHT22;53236;43.666;18.444;2024-03-02T00:08:05;3.70;99.90
65462;DHT22;53236;43.666;18.444;2024-03-02T00:10:36;3.70;99.90
65462;DHT22;53236;43.666;18.444;2024-03-02T00:13:05;3.70;99.90
65462;DHT22;53236;43.666;18.444;2024-03-02T00:15:42;3.60;99.90
65462;DHT22;53236;43.666;18.444;2024-03-02T00:18:24;3.60;99.90
65462;DHT22;53236;43.666;18.444;2024-03-02T00:20:56;3.60;99.90
65462;DHT22;53236;43.666;18.444;2024-03-02T00:23:29;3.60;99.90
65462;DHT22;53236;43.666;18.444;2024-03-02T00:25:56;3.60;99.90
65462;DHT22;53236;43.666;18.444;2024-03-02T00:31:05;3.70;99.90
65462;DHT22;53236;43.666;18.444;2024-03-02T00:33:33;3.60;99.90
65462;DHT22;53236;43.666;18.444;2024-03-02T00:36:01;3.60;99.90
65462;DHT22;53236;43.666;18.444;2024-03-02T00:38:27;3.50;99.90
65462;DHT22;53236;43.666;18.444;2024-03-02T00:40:54;3.50;99.90
65462;DHT22;53236;43.666;18.444;2024-03-02T00:46:03;3.50;99.90
65462;DHT22;53236;43.666;18.444;2024-03-02T00:48:29;3.40;99.90
65462;DHT22;53236;43.666;18.444;2024-03-02T00:50:57;3.40;99.90
65462;DHT22;53236;43.666;18.444;2024-03-02T00:53:24;3.30;99.90
65462;DHT22;53236;43.666;18.444;2024-03-02T00:55:52;3.30;99.90
65462;DHT22;53236;43.666;18.444;2024-03-02T00:58:18;3.20;99.90
65462;DHT22;53236;43.666;18.444;2024-03-02T01:00:44;3.20;99.90
65462;DHT22;53236;43.666;18.444;2024-03-02T01:03:10;3.30;99.90
65462;DHT22;53236;43.666;18.444;2024-03-02T01:05:36;3.20;99.90
65462;DHT22;53236;43.666;18.444;2024-03-02T01:08:02;3.10;99.90
65462;DHT22;53236;43.666;18.444;2024-03-02T01:10:28;3.10;99.90
65462;DHT22;53236;43.666;18.444;2024-03-02T01:12:54;3.10;99.90
65462;DHT22;53236;43.666;18.444;2024-03-02T01:15:19;3.10;99.90
65462;DHT22;53236;43.666;18.444;2024-03-02T01:17:46;3.10;99.90
65462;DHT22;53236;43.666;18.444;2024-03-02T01:20:12;3.10;99.90
65462;DHT22;53236;43.666;18.444;2024-03-02T01:22:37;3.10;99.90
65462;DHT22;53236;43.666;18.444;2024-03-02T01:25:04;3.00;99.90
65462;DHT22;53236;43.666;18.444;2024-03-02T01:27:29;3.00;99.90
65462;DHT22;53236;43.666;18.444;2024-03-02T01:29:55;3.00;99.90
65462;DHT22;53236;43.666;18.444;2024-03-02T01:32:21;2.90;99.90
65462;DHT22;53236;43.666;18.444;2024-03-02T01:34:47;2.90;99.90
65462;DHT22;53236;43.666;18.444;2024-03-02T01:37:13;2.90;99.90
65462;DHT22;53236;43.666;18.444;2024-03-02T01:39:39;2.80;99.90
65462;DHT22;53236;43.666;18.444;2024-03-02T01:42:05;2.80;99.90
65462;DHT22;53236;43.666;18.444;2024-03-02T01:44:30;2.80;99.90
65462;DHT22;53236;43.666;18.444;2024-03-02T01:46:56;2.70;99.90
65462;DHT22;53236;43.666;18.444;2024-03-02T01:49:22;2.70;99.90
65462;DHT22;53236;43.666;18.444;2024-03-02T01:51:48;2.60;99.90
65462;DHT22;53236;43.666;18.444;2024-03-02T01:54:14;2.60;99.90
65462;DHT22;53236;43.666;18.444;2024-03-02T01:56:40;2.50;99.90
65462;DHT22;53236;43.666;18.444;2024-03-02T01:59:06;2.50;99.90
65462;DHT22;53236;43.666;18.444;2024-03-02T02:01:32;2.50;99.90
65462;DHT22;53236;43.666;18.444;2024-03-02T02:03:57;2.40;99.90
65462;DHT22;53236;43.666;18.444;2024-03-02T02:06:24;2.30;99.90
65462;DHT22;53236;43.666;18.444;2024-03-02T02:08:49;2.30;99.90
65462;DHT22;53236;43.666;18.444;2024-03-02T02:11:16;2.30;99.90
65462;DHT22;53236;43.666;18.444;2024-03-02T02:13:41;2.20;99.90
65462;DHT22;53236;43.666;18.444;2024-03-02T02:16:08;2.20;99.90
65462;DHT22;53236;43.666;18.444;2024-03-02T02:18:34;2.10;99.90
65462;DHT22;53236;43.666;18.444;2024-03-02T02:21:02;2.10;99.90
65462;DHT22;53236;43.666;18.444;2024-03-02T02:23:28;2.00;99.90
65462;DHT22;53236;43.666;18.444;2024-03-02T02:25:54;1.90;99.90
65462;DHT22;53236;43.666;18.444;2024-03-02T02:28:20;1.90;99.90
65462;DHT22;53236;43.666;18.444;2024-03-02T02:30:45;1.80;99.90
65462;DHT22;53236;43.666;18.444;2024-03-02T02:33:11;1.80;99.90
65462;DHT22;53236;43.666;18.444;2024-03-02T02:35:37;1.70;99.90
65462;DHT22;53236;43.666;18.444;2024-03-02T02:38:03;1.70;99.90
65462;DHT22;53236;43.666;18.444;2024-03-02T02:40:29;1.60;99.90
65462;DHT22;53236;43.666;18.444;2024-03-02T02:42:56;1.50;99.90
65462;DHT22;53236;43.666;18.444;2024-03-02T02:45:22;1.50;99.90
65462;DHT22;53236;43.666;18.444;2024-03-02T02:47:49;1.50;99.90
65462;DHT22;53236;43.666;18.444;2024-03-02T02:50:15;1.40;99.90
65462;DHT22;53236;43.666;18.444;2024-03-02T02:52:42;1.40;99.90
65462;DHT22;53236;43.666;18.444;2024-03-02T02:55:12;1.30;99.90
65462;DHT22;53236;43.666;18.444;2024-03-02T02:57:40;1.30;99.90
65462;DHT22;53236;43.666;18.444;2024-03-02T03:02:39;1.20;99.90
65462;DHT22;53236;43.666;18.444;2024-03-02T03:05:06;1.20;99.90
65462;DHT22;53236;43.666;18.444;2024-03-02T03:07:32;1.20;99.90
65462;DHT22;53236;43.666;18.444;2024-03-02T03:09:59;1.10;99.90
65462;DHT22;53236;43.666;18.444;2024-03-02T03:12:25;1.10;99.90
65462;DHT22;53236;43.666;18.444;2024-03-02T03:14:51;1.10;99.90
65462;DHT22;53236;43.666;18.444;2024-03-02T03:17:16;1.10;99.90
65462;DHT22;53236;43.666;18.444;2024-03-02T03:19:42;1.10;99.90
65462;DHT22;53236;43.666;18.444;2024-03-02T03:22:08;1.10;99.90
65462;DHT22;53236;43.666;18.444;2024-03-02T03:24:34;1.00;99.90
65462;DHT22;53236;43.666;18.444;2024-03-02T03:27:00;1.00;99.90
65462;DHT22;53236;43.666;18.444;2024-03-02T03:29:25;0.90;99.90
65462;DHT22;53236;43.666;18.444;2024-03-02T03:31:51;0.90;99.90
65462;DHT22;53236;43.666;18.444;2024-03-02T03:34:17;0.90;99.90
65462;DHT22;53236;43.666;18.444;2024-03-02T03:36:43;0.80;99.90
65462;DHT22;53236;43.666;18.444;2024-03-02T03:39:09;0.80;99.90
65462;DHT22;53236;43.666;18.444;2024-03-02T03:41:34;0.80;99.90
65462;DHT22;53236;43.666;18.444;2024-03-02T03:44:00;0.80;99.90
65462;DHT22;53236;43.666;18.444;2024-03-02T03:46:26;0.80;99.90
65462;DHT22;53236;43.666;18.444;2024-03-02T03:48:51;0.80;99.90
65462;DHT22;53236;43.666;18.444;2024-03-02T03:51:17;0.70;99.90
65462;DHT22;53236;43.666;18.444;2024-03-02T03:53:43;0.80;99.90
65462;DHT22;53236;43.666;18.444;2024-03-02T03:56:08;0.70;99.90
65462;DHT22;53236;43.666;18.444;2024-03-02T03:58:34;0.70;99.90
65462;DHT22;53236;43.666;18.444;2024-03-02T04:01:00;0.60;99.90
65462;DHT22;53236;43.666;18.444;2024-03-02T04:03:26;0.60;99.90
65462;DHT22;53236;43.666;18.444;2024-03-02T04:05:51;0.60;99.90
65462;DHT22;53236;43.666;18.444;2024-03-02T04:08:17;0.60;99.90
65462;DHT22;53236;43.666;18.444;2024-03-02T04:10:43;0.60;99.90
65462;DHT22;53236;43.666;18.444;2024-03-02T04:13:09;0.60;99.90
65462;DHT22;53236;43.666;18.444;2024-03-02T04:15:35;0.70;99.90
65462;DHT22;53236;43.666;18.444;2024-03-02T04:18:01;0.60;99.90
65462;DHT22;53236;43.666;18.444;2024-03-02T04:20:27;0.60;99.90
65462;DHT22;53236;43.666;18.444;2024-03-02T04:22:52;0.50;99.90
65462;DHT22;53236;43.666;18.444;2024-03-02T04:25:18;0.40;99.90
65462;DHT22;53236;43.666;18.444;2024-03-02T04:27:45;0.40;99.90
65462;DHT22;53236;43.666;18.444;2024-03-02T04:30:11;0.40;99.90
65462;DHT22;53236;43.666;18.444;2024-03-02T04:32:37;0.40;99.90
65462;DHT22;53236;43.666;18.444;2024-03-02T04:35:03;0.30;99.90
65462;DHT22;53236;43.666;18.444;2024-03-02T04:37:29;0.30;99.90
65462;DHT22;53236;43.666;18.444;2024-03-02T04:39:56;0.30;99.90
65462;DHT22;53236;43.666;18.444;2024-03-02T04:42:22;0.30;99.90
65462;DHT22;53236;43.666;18.444;2024-03-02T04:44:48;0.30;99.90
65462;DHT22;53236;43.666;18.444;2024-03-02T04:47:14;0.30;99.90
65462;DHT22;53236;43.666;18.444;2024-03-02T04:49:39;0.30;99.90
65462;DHT22;53236;43.666;18.444;2024-03-02T04:52:05;0.20;99.90
65462;DHT22;53236;43.666;18.444;2024-03-02T04:54:31;0.30;99.90
65462;DHT22;53236;43.666;18.444;2024-03-02T04:56:57;0.20;99.90
65462;DHT22;53236;43.666;18.444;2024-03-02T04:59:22;0.20;99.90
65462;DHT22;53236;43.666;18.444;2024-03-02T05:01:48;0.10;99.90
65462;DHT22;53236;43.666;18.444;2024-03-02T05:04:14;0.10;99.90
65462;DHT22;53236;43.666;18.444;2024-03-02T05:06:40;0.10;99.90
65462;DHT22;53236;43.666;18.444;2024-03-02T05:09:07;0.00;99.90
65462;DHT22;53236;43.666;18.444;2024-03-02T05:11:33;0.00;99.90
65462;DHT22;53236;43.666;18.444;2024-03-02T05:14:22;0.00;99.90
65462;DHT22;53236;43.666;18.444;2024-03-02T05:16:47;-0.10;99.90
65462;DHT22;53236;43.666;18.444;2024-03-02T05:19:13;-0.10;99.90
65462;DHT22;53236;43.666;18.444;2024-03-02T05:21:39;-0.10;99.90
65462;DHT22;53236;43.666;18.444;2024-03-02T05:24:04;-0.10;99.90
65462;DHT22;53236;43.666;18.444;2024-03-02T05:26:30;-0.10;99.90
65462;DHT22;53236;43.666;18.444;2024-03-02T05:28:56;-0.10;99.90
65462;DHT22;53236;43.666;18.444;2024-03-02T05:31:22;-0.10;99.90
65462;DHT22;53236;43.666;18.444;2024-03-02T05:33:47;-0.10;99.90
65462;DHT22;53236;43.666;18.444;2024-03-02T05:36:13;-0.10;99.90
65462;DHT22;53236;43.666;18.444;2024-03-02T05:38:39;0.00;99.90
65462;DHT22;53236;43.666;18.444;2024-03-02T05:41:05;0.10;99.90
65462;DHT22;53236;43.666;18.444;2024-03-02T05:43:30;0.20;99.90
65462;DHT22;53236;43.666;18.444;2024-03-02T05:45:56;0.40;99.90
65462;DHT22;53236;43.666;18.444;2024-03-02T05:48:22;0.50;99.90
65462;DHT22;53236;43.666;18.444;2024-03-02T05:50:47;0.70;99.90
65462;DHT22;53236;43.666;18.444;2024-03-02T05:53:14;0.80;99.90
65462;DHT22;53236;43.666;18.444;2024-03-02T05:55:41;1.00;99.90
65462;DHT22;53236;43.666;18.444;2024-03-02T05:58:06;1.10;99.90
65462;DHT22;53236;43.666;18.444;2024-03-02T06:00:32;1.30;99.90
65462;DHT22;53236;43.666;18.444;2024-03-02T06:02:58;1.40;99.90
65462;DHT22;53236;43.666;18.444;2024-03-02T06:05:24;1.70;99.90
65462;DHT22;53236;43.666;18.444;2024-03-02T06:07:50;2.50;99.90
65462;DHT22;53236;43.666;18.444;2024-03-02T06:10:16;3.50;99.90
65462;DHT22;53236;43.666;18.444;2024-03-02T06:12:43;4.70;99.90
65462;DHT22;53236;43.666;18.444;2024-03-02T06:15:09;5.50;99.90
65462;DHT22;53236;43.666;18.444;2024-03-02T06:17:36;5.60;99.90
65462;DHT22;53236;43.666;18.444;2024-03-02T06:20:02;5.90;99.90
65462;DHT22;53236;43.666;18.444;2024-03-02T06:22:28;6.20;99.90
65462;DHT22;53236;43.666;18.444;2024-03-02T06:24:53;7.00;99.90
65462;DHT22;53236;43.666;18.444;2024-03-02T06:27:19;7.70;95.90
65462;DHT22;53236;43.666;18.444;2024-03-02T06:29:45;8.10;92.10
65462;DHT22;53236;43.666;18.444;2024-03-02T06:32:11;8.60;90.90
65462;DHT22;53236;43.666;18.444;2024-03-02T06:34:36;9.80;87.60
65462;DHT22;53236;43.666;18.444;2024-03-02T06:37:02;10.90;81.30
65462;DHT22;53236;43.666;18.444;2024-03-02T06:39:28;11.70;71.30
65462;DHT22;53236;43.666;18.444;2024-03-02T06:41:54;11.80;72.00
65462;DHT22;53236;43.666;18.444;2024-03-02T06:44:20;12.80;65.80
65462;DHT22;53236;43.666;18.444;2024-03-02T06:46:46;13.10;69.30
65462;DHT22;53236;43.666;18.444;2024-03-02T06:49:12;14.10;63.40
65462;DHT22;53236;43.666;18.444;2024-03-02T06:51:38;14.20;60.00
65462;DHT22;53236;43.666;18.444;2024-03-02T06:54:03;14.70;60.30
65462;DHT22;53236;43.666;18.444;2024-03-02T06:56:29;14.80;57.60
65462;DHT22;53236;43.666;18.444;2024-03-02T06:58:56;14.70;57.60
65462;DHT22;53236;43.666;18.444;2024-03-02T07:01:21;14.70;57.50
65462;DHT22;53236;43.666;18.444;2024-03-02T07:03:47;16.00;57.40
65462;DHT22;53236;43.666;18.444;2024-03-02T07:06:13;16.50;53.80
65462;DHT22;53236;43.666;18.444;2024-03-02T07:08:39;16.10;54.60
65462;DHT22;53236;43.666;18.444;2024-03-02T07:11:05;16.40;54.50
65462;DHT22;53236;43.666;18.444;2024-03-02T07:13:30;17.20;54.80
65462;DHT22;53236;43.666;18.444;2024-03-02T07:15:56;17.10;54.50
65462;DHT22;53236;43.666;18.444;2024-03-02T07:18:28;18.20;52.30
65462;DHT22;53236;43.666;18.444;2024-03-02T07:20:54;18.10;50.90
65462;DHT22;53236;43.666;18.444;2024-03-02T07:23:23;19.20;50.90
65462;DHT22;53236;43.666;18.444;2024-03-02T07:25:52;20.00;50.30
65462;DHT22;53236;43.666;18.444;2024-03-02T07:28:22;19.90;49.90
65462;DHT22;53236;43.666;18.444;2024-03-02T07:31:00;20.70;47.50
65462;DHT22;53236;43.666;18.444;2024-03-02T07:33:26;21.40;47.30
65462;DHT22;53236;43.666;18.444;2024-03-02T07:35:54;20.20;46.90
65462;DHT22;53236;43.666;18.444;2024-03-02T07:38:20;20.50;47.40
65462;DHT22;53236;43.666;18.444;2024-03-02T07:40:46;21.50;45.20
65462;DHT22;53236;43.666;18.444;2024-03-02T07:43:11;20.70;45.90
65462;DHT22;53236;43.666;18.444;2024-03-02T07:45:37;20.50;47.30
65462;DHT22;53236;43.666;18.444;2024-03-02T07:48:03;20.60;46.10
65462;DHT22;53236;43.666;18.444;2024-03-02T07:50:31;20.40;47.10
65462;DHT22;53236;43.666;18.444;2024-03-02T07:53:00;21.30;46.30
65462;DHT22;53236;43.666;18.444;2024-03-02T07:55:26;22.30;46.70
65462;DHT22;53236;43.666;18.444;2024-03-02T07:57:52;23.30;43.40
65462;DHT22;53236;43.666;18.444;2024-03-02T08:00:18;23.40;44.10
65462;DHT22;53236;43.666;18.444;2024-03-02T08:02:43;22.70;45.50
65462;DHT22;53236;43.666;18.444;2024-03-02T08:05:09;23.40;44.80
65462;DHT22;53236;43.666;18.444;2024-03-02T08:07:35;23.30;43.10
65462;DHT22;53236;43.666;18.444;2024-03-02T08:10:01;24.90;42.20
65462;DHT22;53236;43.666;18.444;2024-03-02T08:12:27;23.90;42.30
65462;DHT22;53236;43.666;18.444;2024-03-02T08:14:52;25.40;41.90
65462;DHT22;53236;43.666;18.444;2024-03-02T08:17:18;25.80;39.90
65462;DHT22;53236;43.666;18.444;2024-03-02T08:19:44;26.70;40.90
65462;DHT22;53236;43.666;18.444;2024-03-02T08:22:10;26.80;39.50
65462;DHT22;53236;43.666;18.444;2024-03-02T08:24:36;26.30;39.70
65462;DHT22;53236;43.666;18.444;2024-03-02T08:27:02;25.80;39.70
65462;DHT22;53236;43.666;18.444;2024-03-02T08:29:28;26.00;39.40
65462;DHT22;53236;43.666;18.444;2024-03-02T08:31:54;27.00;39.80
65462;DHT22;53236;43.666;18.444;2024-03-02T08:34:20;28.60;38.70
65462;DHT22;53236;43.666;18.444;2024-03-02T08:36:46;29.70;37.80
65462;DHT22;53236;43.666;18.444;2024-03-02T08:39:12;29.70;36.90
65462;DHT22;53236;43.666;18.444;2024-03-02T08:41:47;29.80;34.50
65462;DHT22;53236;43.666;18.444;2024-03-02T08:44:14;29.20;34.30
65462;DHT22;53236;43.666;18.444;2024-03-02T08:46:40;29.90;34.60
65462;DHT22;53236;43.666;18.444;2024-03-02T08:49:06;30.40;34.40
65462;DHT22;53236;43.666;18.444;2024-03-02T08:51:32;31.00;32.70
65462;DHT22;53236;43.666;18.444;2024-03-02T08:53:58;30.90;34.20
65462;DHT22;53236;43.666;18.444;2024-03-02T08:56:25;31.40;33.00
65462;DHT22;53236;43.666;18.444;2024-03-02T08:58:51;31.20;32.30
65462;DHT22;53236;43.666;18.444;2024-03-02T09:01:18;31.60;32.60
65462;DHT22;53236;43.666;18.444;2024-03-02T09:03:45;31.70;31.60
65462;DHT22;53236;43.666;18.444;2024-03-02T09:06:14;31.10;31.20
65462;DHT22;53236;43.666;18.444;2024-03-02T09:08:42;29.30;31.20
65462;DHT22;53236;43.666;18.444;2024-03-02T09:11:10;29.20;32.10
65462;DHT22;53236;43.666;18.444;2024-03-02T09:13:38;29.00;31.90
65462;DHT22;53236;43.666;18.444;2024-03-02T09:16:04;30.70;31.80
65462;DHT22;53236;43.666;18.444;2024-03-02T09:18:31;31.40;31.50
65462;DHT22;53236;43.666;18.444;2024-03-02T09:20:56;30.20;31.40
65462;DHT22;53236;43.666;18.444;2024-03-02T09:23:22;29.50;32.50
65462;DHT22;53236;43.666;18.444;2024-03-02T09:25:48;30.20;33.20
65462;DHT22;53236;43.666;18.444;2024-03-02T09:28:15;30.50;33.30
65462;DHT22;53236;43.666;18.444;2024-03-02T09:30:41;30.00;31.50
65462;DHT22;53236;43.666;18.444;2024-03-02T09:33:07;30.00;32.50
65462;DHT22;53236;43.666;18.444;2024-03-02T09:35:33;30.30;31.00
65462;DHT22;53236;43.666;18.444;2024-03-02T09:37:58;30.20;31.70
65462;DHT22;53236;43.666;18.444;2024-03-02T09:40:24;31.40;30.60
65462;DHT22;53236;43.666;18.444;2024-03-02T09:42:51;30.90;31.50
65462;DHT22;53236;43.666;18.444;2024-03-02T09:45:27;31.30;31.60
65462;DHT22;53236;43.666;18.444;2024-03-02T09:47:53;30.90;30.50
65462;DHT22;53236;43.666;18.444;2024-03-02T09:50:18;31.50;30.70
65462;DHT22;53236;43.666;18.444;2024-03-02T09:52:49;31.00;30.50
65462;DHT22;53236;43.666;18.444;2024-03-02T09:55:16;31.20;30.50
65462;DHT22;53236;43.666;18.444;2024-03-02T09:57:43;31.10;30.40
65462;DHT22;53236;43.666;18.444;2024-03-02T10:00:09;30.70;30.60
65462;DHT22;53236;43.666;18.444;2024-03-02T10:02:41;31.50;30.90
65462;DHT22;53236;43.666;18.444;2024-03-02T10:05:09;31.70;30.30
65462;DHT22;53236;43.666;18.444;2024-03-02T10:07:34;32.10;30.00
65462;DHT22;53236;43.666;18.444;2024-03-02T10:10:12;31.70;30.60
65462;DHT22;53236;43.666;18.444;2024-03-02T10:12:38;31.10;31.00
65462;DHT22;53236;43.666;18.444;2024-03-02T10:15:04;30.60;30.00
65462;DHT22;53236;43.666;18.444;2024-03-02T10:17:31;30.00;30.30
65462;DHT22;53236;43.666;18.444;2024-03-02T10:19:57;30.60;30.60
65462;DHT22;53236;43.666;18.444;2024-03-02T10:22:23;31.10;30.20
65462;DHT22;53236;43.666;18.444;2024-03-02T10:24:49;30.10;32.30
65462;DHT22;53236;43.666;18.444;2024-03-02T10:27:26;29.80;30.80
65462;DHT22;53236;43.666;18.444;2024-03-02T10:29:52;27.30;32.10
65462;DHT22;53236;43.666;18.444;2024-03-02T10:32:22;25.10;34.80
65462;DHT22;53236;43.666;18.444;2024-03-02T10:34:48;22.70;37.40
65462;DHT22;53236;43.666;18.444;2024-03-02T10:37:16;21.90;38.80
65462;DHT22;53236;43.666;18.444;2024-03-02T10:39:43;21.40;40.10
65462;DHT22;53236;43.666;18.444;2024-03-02T10:42:12;22.60;38.60
65462;DHT22;53236;43.666;18.444;2024-03-02T10:44:39;22.80;36.90
65462;DHT22;53236;43.666;18.444;2024-03-02T10:47:06;22.30;37.30
65462;DHT22;53236;43.666;18.444;2024-03-02T10:49:34;22.30;38.50
65462;DHT22;53236;43.666;18.444;2024-03-02T10:52:00;23.30;37.00
65462;DHT22;53236;43.666;18.444;2024-03-02T10:54:26;22.50;37.40
65462;DHT22;53236;43.666;18.444;2024-03-02T10:56:58;21.50;39.20
65462;DHT22;53236;43.666;18.444;2024-03-02T11:02:02;20.60;40.70
65462;DHT22;53236;43.666;18.444;2024-03-02T11:04:30;20.50;42.10
65462;DHT22;53236;43.666;18.444;2024-03-02T11:07:05;19.20;41.00
65462;DHT22;53236;43.666;18.444;2024-03-02T11:09:34;18.30;43.40
65462;DHT22;53236;43.666;18.444;2024-03-02T11:14:51;18.30;43.60
65462;DHT22;53236;43.666;18.444;2024-03-02T11:17:19;18.40;43.50
65462;DHT22;53236;43.666;18.444;2024-03-02T11:19:46;18.60;42.70
65462;DHT22;53236;43.666;18.444;2024-03-02T11:22:13;18.50;42.80
65462;DHT22;53236;43.666;18.444;2024-03-02T11:24:51;17.70;43.80
65462;DHT22;53236;43.666;18.444;2024-03-02T11:33:07;17.10;45.50
65462;DHT22;53236;43.666;18.444;2024-03-02T11:35:36;16.70;46.50
65462;DHT22;53236;43.666;18.444;2024-03-02T11:38:03;16.10;47.60
65462;DHT22;53236;43.666;18.444;2024-03-02T11:40:30;16.20;48.20
65462;DHT22;53236;43.666;18.444;2024-03-02T11:42:56;15.80;50.20
65462;DHT22;53236;43.666;18.444;2024-03-02T11:45:24;15.50;49.40
65462;DHT22;53236;43.666;18.444;2024-03-02T11:47:58;15.00;50.80
65462;DHT22;53236;43.666;18.444;2024-03-02T11:50:36;14.90;50.70
65462;DHT22;53236;43.666;18.444;2024-03-02T11:53:05;14.70;50.90
65462;DHT22;53236;43.666;18.444;2024-03-02T11:55:38;14.60;51.20
65462;DHT22;53236;43.666;18.444;2024-03-02T11:58:12;14.60;52.40
65462;DHT22;53236;43.666;18.444;2024-03-02T12:00:38;14.80;51.60
65462;DHT22;53236;43.666;18.444;2024-03-02T12:03:07;14.90;52.20
65462;DHT22;53236;43.666;18.444;2024-03-02T12:05:34;15.20;50.00
65462;DHT22;53236;43.666;18.444;2024-03-02T12:08:04;15.30;52.30
65462;DHT22;53236;43.666;18.444;2024-03-02T12:10:31;15.20;49.70
65462;DHT22;53236;43.666;18.444;2024-03-02T12:13:04;15.30;52.20
65462;DHT22;53236;43.666;18.444;2024-03-02T12:15:35;15.40;49.20
65462;DHT22;53236;43.666;18.444;2024-03-02T12:18:02;15.60;49.40
65462;DHT22;53236;43.666;18.444;2024-03-02T12:20:30;15.60;49.80
65462;DHT22;53236;43.666;18.444;2024-03-02T12:22:58;15.50;49.80
65462;DHT22;53236;43.666;18.444;2024-03-02T12:25:25;15.40;50.40
65462;DHT22;53236;43.666;18.444;2024-03-02T12:27:56;15.30;50.50
65462;DHT22;53236;43.666;18.444;2024-03-02T12:30:22;15.20;50.40
65462;DHT22;53236;43.666;18.444;2024-03-02T12:32:49;15.10;51.00
65462;DHT22;53236;43.666;18.444;2024-03-02T12:35:15;15.40;51.30
65462;DHT22;53236;43.666;18.444;2024-03-02T12:37:48;15.40;50.40
65462;DHT22;53236;43.666;18.444;2024-03-02T12:40:16;15.30;50.20
65462;DHT22;53236;43.666;18.444;2024-03-02T12:42:46;15.30;52.20
65462;DHT22;53236;43.666;18.444;2024-03-02T12:45:13;15.40;51.50
65462;DHT22;53236;43.666;18.444;2024-03-02T12:47:41;15.40;50.50
65462;DHT22;53236;43.666;18.444;2024-03-02T12:50:07;15.20;52.30
65462;DHT22;53236;43.666;18.444;2024-03-02T12:52:33;15.40;52.40
65462;DHT22;53236;43.666;18.444;2024-03-02T12:55:04;15.30;52.50
65462;DHT22;53236;43.666;18.444;2024-03-02T12:57:31;15.20;52.10
65462;DHT22;53236;43.666;18.444;2024-03-02T13:00:04;15.20;52.50
65462;DHT22;53236;43.666;18.444;2024-03-02T13:02:42;15.40;53.60
65462;DHT22;53236;43.666;18.444;2024-03-02T13:05:08;15.50;51.90
65462;DHT22;53236;43.666;18.444;2024-03-02T13:07:40;15.50;51.90
65462;DHT22;53236;43.666;18.444;2024-03-02T13:10:10;15.40;52.00
65462;DHT22;53236;43.666;18.444;2024-03-02T13:12:37;15.20;52.20
65462;DHT22;53236;43.666;18.444;2024-03-02T13:15:04;15.00;52.70
65462;DHT22;53236;43.666;18.444;2024-03-02T13:17:30;15.00;53.50
65462;DHT22;53236;43.666;18.444;2024-03-02T13:19:59;15.20;53.30
65462;DHT22;53236;43.666;18.444;2024-03-02T13:22:26;15.20;53.30
65462;DHT22;53236;43.666;18.444;2024-03-02T13:24:53;15.10;51.10
65462;DHT22;53236;43.666;18.444;2024-03-02T13:27:20;15.00;52.00
65462;DHT22;53236;43.666;18.444;2024-03-02T13:29:49;15.00;52.40
65462;DHT22;53236;43.666;18.444;2024-03-02T13:32:16;14.80;52.20
65462;DHT22;53236;43.666;18.444;2024-03-02T13:34:42;14.60;51.80
65462;DHT22;53236;43.666;18.444;2024-03-02T13:37:08;14.60;52.60
65462;DHT22;53236;43.666;18.444;2024-03-02T13:39:35;14.70;53.30
65462;DHT22;53236;43.666;18.444;2024-03-02T13:42:09;14.70;52.20
65462;DHT22;53236;43.666;18.444;2024-03-02T13:44:36;14.40;51.50
65462;DHT22;53236;43.666;18.444;2024-03-02T13:47:03;14.40;51.60
65462;DHT22;53236;43.666;18.444;2024-03-02T13:49:29;14.20;52.00
65462;DHT22;53236;43.666;18.444;2024-03-02T13:52:07;13.90;52.90
65462;DHT22;53236;43.666;18.444;2024-03-02T13:54:40;13.80;52.30
65462;DHT22;53236;43.666;18.444;2024-03-02T13:57:08;13.80;52.90
65462;DHT22;53236;43.666;18.444;2024-03-02T13:59:35;13.70;53.30
65462;DHT22;53236;43.666;18.444;2024-03-02T14:02:02;13.50;52.70
65462;DHT22;53236;43.666;18.444;2024-03-02T14:04:30;13.50;53.20
65462;DHT22;53236;43.666;18.444;2024-03-02T14:06:56;13.50;53.10
65462;DHT22;53236;43.666;18.444;2024-03-02T14:09:22;13.50;54.30
65462;DHT22;53236;43.666;18.444;2024-03-02T14:11:50;13.50;54.50
65462;DHT22;53236;43.666;18.444;2024-03-02T14:14:17;13.40;54.20
65462;DHT22;53236;43.666;18.444;2024-03-02T14:16:43;13.40;53.30
65462;DHT22;53236;43.666;18.444;2024-03-02T14:19:11;13.30;52.80
65462;DHT22;53236;43.666;18.444;2024-03-02T14:21:38;13.40;53.80
65462;DHT22;53236;43.666;18.444;2024-03-02T14:24:04;13.50;52.80
65462;DHT22;53236;43.666;18.444;2024-03-02T14:26:30;13.50;53.00
65462;DHT22;53236;43.666;18.444;2024-03-02T14:28:55;13.60;53.30
65462;DHT22;53236;43.666;18.444;2024-03-02T14:31:21;13.60;53.20
65462;DHT22;53236;43.666;18.444;2024-03-02T14:33:47;13.70;53.90
65462;DHT22;53236;43.666;18.444;2024-03-02T14:36:13;13.60;53.80
65462;DHT22;53236;43.666;18.444;2024-03-02T14:38:39;13.60;53.90
65462;DHT22;53236;43.666;18.444;2024-03-02T14:41:05;13.60;54.50
65462;DHT22;53236;43.666;18.444;2024-03-02T14:43:30;13.60;54.40
65462;DHT22;53236;43.666;18.444;2024-03-02T14:45:56;13.60;53.70
65462;DHT22;53236;43.666;18.444;2024-03-02T14:48:24;13.60;54.50
65462;DHT22;53236;43.666;18.444;2024-03-02T14:50:50;13.50;54.80
65462;DHT22;53236;43.666;18.444;2024-03-02T14:53:16;13.50;54.70
65462;DHT22;53236;43.666;18.444;2024-03-02T14:55:43;13.30;56.00
65462;DHT22;53236;43.666;18.444;2024-03-02T14:58:09;13.20;56.10
65462;DHT22;53236;43.666;18.444;2024-03-02T15:00:35;13.10;56.70
65462;DHT22;53236;43.666;18.444;2024-03-02T15:03:01;13.10;56.20
65462;DHT22;53236;43.666;18.444;2024-03-02T15:05:27;13.00;57.10
65462;DHT22;53236;43.666;18.444;2024-03-02T15:07:53;12.90;57.20
65462;DHT22;53236;43.666;18.444;2024-03-02T15:10:18;12.70;57.90
65462;DHT22;53236;43.666;18.444;2024-03-02T15:12:44;12.50;58.30
65462;DHT22;53236;43.666;18.444;2024-03-02T15:15:10;12.40;59.20
65462;DHT22;53236;43.666;18.444;2024-03-02T15:17:37;12.40;59.50
65462;DHT22;53236;43.666;18.444;2024-03-02T15:20:03;12.40;58.80
65462;DHT22;53236;43.666;18.444;2024-03-02T15:22:30;12.20;58.80
65462;DHT22;53236;43.666;18.444;2024-03-02T15:24:56;12.20;59.50
65462;DHT22;53236;43.666;18.444;2024-03-02T15:27:21;12.10;59.90
65462;DHT22;53236;43.666;18.444;2024-03-02T15:29:47;12.00;59.40
65462;DHT22;53236;43.666;18.444;2024-03-02T15:32:15;12.00;60.10
65462;DHT22;53236;43.666;18.444;2024-03-02T15:34:41;11.90;60.00
65462;DHT22;53236;43.666;18.444;2024-03-02T15:37:08;11.90;61.00
65462;DHT22;53236;43.666;18.444;2024-03-02T15:39:34;11.90;61.70